Disclaimer

Please do not use the information listed here in-flight or in-navigation, as they are not provided to us by the airports but are provided by volunteers, so they might be outdated.

Search


Regions


Airport information page

Radio informations:
Tower (TWR) - 118.1 MHz
Approach (APP) - 126.7 MHz

Airport informations:
Latitude: 18° 47' 49.02" S
Longitude: 047° 28' 43.70" E
Elevation: 4198 feet - 1280 meters
Operating hours: N/A
Operating agency: Military-civil joint use airport
Timezone: UTC+3
Fuel: Jet A1, without icing nhibitor.

100/130 MIL Spec, low lead, aviation gasoline (BLUE)

Runway information:
11/29 - 10171 x 148 feet< - >3100 x 45 meters

Recent METARs:
FMMI 130400Z 17010KT 130V190 9999 FEW017 SCT020 18/13 Q1021 NOSIG
FMMI 130430Z 17011KT 120V190 9999 FEW017 BKN020 18/14 Q1021 NOSIG
FMMI 130500Z 16010KT 130V190 9999 FEW017 BKN020 19/14 Q1021 NOSIG

Airport on the map: